createdAt,value
2018-05-25T00:01:58.703Z,7.10
2018-05-25T00:04:26.155Z,6.90
2018-05-25T00:06:53.792Z,6.87
2018-05-25T00:09:21.315Z,6.67
2018-05-25T00:11:51.809Z,7.27
2018-05-25T00:14:19.253Z,6.17
2018-05-25T00:16:47.479Z,6.30
2018-05-25T00:19:16.223Z,6.00
2018-05-25T00:21:44.435Z,9.63
2018-05-25T00:24:11.892Z,6.07
2018-05-25T00:26:39.373Z,6.27
2018-05-25T00:29:06.823Z,5.90
2018-05-25T00:31:34.280Z,8.17
2018-05-25T00:34:01.724Z,5.10
2018-05-25T00:36:29.174Z,6.17
2018-05-25T00:38:56.644Z,5.93
2018-05-25T00:41:24.095Z,5.90
2018-05-25T00:43:51.527Z,5.07
2018-05-25T00:46:18.997Z,5.70
2018-05-25T00:48:46.481Z,5.70
2018-05-25T00:51:15.620Z,6.77
2018-05-25T00:53:43.943Z,6.40
2018-05-25T00:56:11.406Z,5.93
2018-05-25T00:58:38.839Z,7.00
2018-05-25T01:01:06.320Z,5.40
2018-05-25T01:03:33.760Z,5.50
2018-05-25T01:06:01.229Z,6.73
2018-05-25T01:08:29.437Z,5.90
2018-05-25T01:10:56.900Z,5.27
2018-05-25T01:13:24.350Z,7.53
2018-05-25T01:15:53.339Z,6.30
2018-05-25T01:18:22.288Z,6.33
2018-05-25T01:20:49.779Z,7.93
2018-05-25T01:23:17.163Z,6.30
2018-05-25T01:25:45.388Z,6.80
2018-05-25T01:28:12.841Z,10.10
2018-05-25T01:30:40.305Z,6.17
2018-05-25T01:33:07.754Z,7.00
2018-05-25T01:35:35.209Z,6.10
2018-05-25T01:38:03.433Z,6.50
2018-05-25T01:40:30.903Z,6.10
2018-05-25T01:42:58.336Z,5.50
2018-05-25T01:45:27.320Z,8.50
2018-05-25T01:47:54.757Z,6.62
2018-05-25T01:50:22.212Z,6.57
2018-05-25T01:52:49.686Z,5.67
2018-05-25T01:55:17.127Z,5.70
2018-05-25T01:57:44.591Z,8.53
2018-05-25T02:00:12.051Z,6.33
2018-05-25T02:02:39.511Z,6.00
2018-05-25T02:05:06.947Z,9.60
2018-05-25T02:07:34.445Z,8.40
2018-05-25T02:10:01.889Z,8.13
2018-05-25T02:12:29.342Z,7.60
2018-05-25T02:14:56.800Z,8.87
2018-05-25T02:17:24.251Z,8.33
2018-05-25T02:19:51.718Z,7.80
2018-05-25T02:22:19.180Z,7.50
2018-05-25T02:24:46.624Z,7.53
2018-05-25T02:27:14.051Z,9.80
2018-05-25T02:29:41.503Z,9.23
2018-05-25T02:32:08.957Z,7.18
2018-05-25T02:34:36.400Z,6.03
2018-05-25T02:37:04.620Z,7.23
2018-05-25T02:39:32.079Z,10.37
2018-05-25T02:41:59.528Z,7.30
2018-05-25T02:44:26.977Z,6.73
2018-05-25T02:46:54.453Z,7.53
2018-05-25T02:49:21.907Z,6.03
2018-05-25T02:51:49.354Z,7.60
2018-05-25T02:54:16.832Z,6.13
2018-05-25T02:56:44.272Z,7.20
2018-05-25T02:59:11.721Z,7.90
2018-05-25T03:01:39.163Z,7.20
2018-05-25T03:04:06.623Z,6.20
2018-05-25T03:06:34.084Z,7.40
2018-05-25T03:09:01.577Z,6.20
2018-05-25T03:11:29.034Z,7.10
2018-05-25T03:13:56.472Z,10.80
2018-05-25T03:16:25.501Z,6.50
2018-05-25T03:18:52.960Z,6.10
2018-05-25T03:21:20.427Z,7.20
2018-05-25T03:23:48.674Z,8.37
2018-05-25T03:26:16.113Z,6.80
2018-05-25T03:28:43.561Z,7.22
2018-05-25T03:31:11.023Z,6.27
2018-05-25T03:33:38.481Z,9.57
2018-05-25T03:36:05.954Z,7.17
2018-05-25T03:38:33.408Z,8.57
2018-05-25T03:41:00.876Z,9.47
2018-05-25T03:43:28.335Z,9.60
2018-05-25T03:45:55.768Z,8.10
2018-05-25T03:48:23.269Z,7.67
2018-05-25T03:50:50.701Z,8.83
2018-05-25T03:53:18.141Z,8.70
2018-05-25T03:55:45.614Z,10.70
2018-05-25T03:58:13.052Z,12.50
2018-05-25T04:00:52.381Z,11.10
2018-05-25T04:03:19.828Z,12.00
2018-05-25T04:05:47.306Z,9.60
2018-05-25T04:08:14.745Z,11.40
2018-05-25T04:10:42.192Z,12.33
2018-05-25T04:13:10.417Z,10.10
2018-05-25T04:15:37.872Z,11.87
2018-05-25T04:18:05.343Z,10.40
2018-05-25T04:20:32.799Z,9.87
2018-05-25T04:23:00.259Z,8.90
2018-05-25T04:25:27.733Z,11.63
2018-05-25T04:27:55.167Z,9.93
2018-05-25T04:30:22.625Z,9.20
2018-05-25T04:32:50.063Z,11.20
2018-05-25T04:35:17.544Z,27.60
2018-05-25T04:37:44.988Z,10.23
2018-05-25T04:40:12.428Z,10.83
2018-05-25T04:42:39.892Z,10.00
2018-05-25T04:45:08.504Z,11.80
2018-05-25T04:47:35.984Z,9.17
2018-05-25T04:50:09.469Z,12.47
2018-05-25T04:52:36.934Z,11.07
2018-05-25T04:55:04.381Z,9.80
2018-05-25T04:57:31.925Z,13.90
2018-05-25T04:59:59.387Z,11.40
2018-05-25T05:02:26.820Z,9.50
2018-05-25T05:04:54.284Z,15.00
2018-05-25T05:07:21.737Z,9.93
2018-05-25T05:09:49.968Z,10.30
2018-05-25T05:12:18.192Z,13.40
2018-05-25T05:14:45.635Z,10.50
2018-05-25T05:17:13.096Z,10.63
2018-05-25T05:19:40.536Z,10.70
2018-05-25T05:22:08.005Z,13.90
2018-05-25T05:24:35.450Z,9.57
2018-05-25T05:27:02.907Z,10.90
2018-05-25T05:29:30.376Z,10.20
2018-05-25T05:31:57.813Z,10.27
2018-05-25T05:34:25.272Z,10.30
2018-05-25T05:36:53.467Z,8.60
2018-05-25T05:39:20.942Z,8.57
2018-05-25T05:41:48.386Z,9.60
2018-05-25T05:44:15.867Z,8.77
2018-05-25T05:46:43.336Z,9.63
2018-05-25T05:49:10.801Z,11.97
2018-05-25T05:51:38.261Z,10.40
2018-05-25T05:54:05.696Z,9.37
2018-05-25T05:56:33.179Z,9.23
2018-05-25T05:59:00.608Z,8.47
2018-05-25T06:01:28.076Z,10.67
2018-05-25T06:03:56.528Z,11.05
2018-05-25T06:06:23.981Z,10.03
2018-05-25T06:08:51.413Z,9.17
2018-05-25T06:11:18.883Z,9.33
2018-05-25T06:13:46.324Z,9.02
2018-05-25T06:16:14.548Z,9.87
2018-05-25T06:18:42.116Z,9.77
2018-05-25T06:21:09.593Z,9.63
2018-05-25T06:23:37.028Z,9.67
2018-05-25T06:26:04.480Z,9.32
2018-05-25T06:28:31.951Z,10.20
2018-05-25T06:30:59.388Z,9.10
2018-05-25T06:33:26.864Z,8.97
2018-05-25T06:35:54.312Z,10.13
2018-05-25T06:38:21.777Z,9.13
2018-05-25T06:40:49.212Z,10.00
2018-05-25T06:43:16.684Z,9.27
2018-05-25T06:45:44.138Z,9.03
2018-05-25T06:48:11.596Z,8.68
2018-05-25T06:50:39.107Z,11.47
2018-05-25T06:53:06.532Z,10.37
2018-05-25T06:55:33.972Z,11.03
2018-05-25T06:58:01.497Z,14.70
2018-05-25T07:00:28.899Z,13.00
2018-05-25T07:02:56.359Z,10.97
2018-05-25T07:08:18.697Z,13.97
2018-05-25T07:10:46.160Z,11.03
2018-05-25T07:13:13.642Z,14.03
2018-05-25T07:15:41.112Z,13.70
2018-05-25T07:18:09.324Z,12.23
2018-05-25T07:20:36.781Z,13.67
2018-05-25T07:23:04.270Z,14.00
2018-05-25T07:25:31.735Z,12.20
2018-05-25T07:27:59.208Z,14.53
2018-05-25T07:30:27.532Z,12.50
2018-05-25T07:32:55.088Z,15.47
2018-05-25T07:35:22.690Z,18.03
2018-05-25T07:37:50.164Z,11.70
2018-05-25T07:40:17.611Z,13.97
2018-05-25T07:42:45.079Z,16.35
2018-05-25T07:45:13.322Z,13.20
2018-05-25T07:47:40.788Z,15.40
2018-05-25T07:50:08.265Z,11.70
2018-05-25T07:52:35.724Z,10.88
2018-05-25T07:55:03.202Z,10.03
2018-05-25T07:57:31.411Z,9.67
2018-05-25T07:59:58.868Z,9.73
2018-05-25T08:02:26.315Z,9.37
2018-05-25T08:04:53.768Z,8.93
2018-05-25T08:07:21.224Z,8.80
2018-05-25T08:09:48.659Z,9.30
2018-05-25T08:12:16.903Z,8.40
2018-05-25T08:14:44.352Z,13.63
2018-05-25T08:17:11.799Z,10.57
2018-05-25T08:19:39.348Z,10.00
2018-05-25T08:22:06.823Z,9.43
2018-05-25T08:24:34.294Z,8.50
2018-05-25T08:27:01.738Z,11.53
2018-05-25T08:29:29.196Z,10.23
2018-05-25T08:31:56.672Z,9.40
2018-05-25T08:34:24.161Z,9.57
2018-05-25T08:36:51.621Z,9.47
2018-05-25T08:39:19.079Z,8.93
2018-05-25T08:41:47.276Z,9.50
2018-05-25T08:44:14.740Z,10.30
2018-05-25T08:46:42.212Z,8.80
2018-05-25T08:49:15.923Z,7.00
2018-05-25T08:51:43.394Z,7.50
2018-05-25T08:54:11.625Z,7.00
2018-05-25T08:56:39.122Z,7.10
2018-05-25T08:59:06.590Z,7.13
2018-05-25T09:01:34.057Z,5.83
2018-05-25T09:04:01.513Z,6.43
2018-05-25T09:06:29.725Z,5.60
2018-05-25T09:08:57.176Z,5.83
2018-05-25T09:11:24.633Z,6.75
2018-05-25T09:13:52.091Z,6.03
2018-05-25T09:16:19.544Z,5.30
2018-05-25T09:18:47.014Z,5.90
2018-05-25T09:21:14.457Z,5.77
2018-05-25T09:23:42.680Z,8.43
2018-05-25T09:26:10.123Z,5.67
2018-05-25T09:28:37.556Z,5.93
2018-05-25T09:31:05.027Z,6.40
2018-05-25T09:33:32.488Z,4.68
2018-05-25T09:35:59.929Z,6.17
2018-05-25T09:38:27.725Z,8.40
2018-05-25T09:40:55.168Z,6.00
2018-05-25T09:43:22.659Z,5.87
2018-05-25T09:45:50.069Z,5.30
2018-05-25T09:48:17.554Z,6.10
2018-05-25T09:50:45.005Z,6.37
2018-05-25T09:53:12.460Z,6.13
2018-05-25T09:55:39.903Z,5.03
2018-05-25T09:58:07.368Z,5.07
2018-05-25T10:00:34.817Z,5.03
2018-05-25T10:03:02.263Z,6.43
2018-05-25T10:05:29.718Z,5.80
2018-05-25T10:07:57.183Z,5.40
2018-05-25T10:10:24.626Z,5.47
2018-05-25T10:12:52.071Z,5.43
2018-05-25T10:15:20.292Z,5.00
2018-05-25T10:17:47.768Z,4.43
2018-05-25T10:20:15.207Z,4.83
2018-05-25T10:22:42.653Z,5.13
2018-05-25T10:25:10.113Z,5.47
2018-05-25T10:27:37.587Z,4.90
2018-05-25T10:30:05.037Z,6.10
2018-05-25T10:32:32.476Z,4.50
2018-05-25T10:34:59.978Z,5.40
2018-05-25T10:37:27.372Z,5.13
2018-05-25T10:39:55.764Z,4.70
2018-05-25T10:42:23.216Z,4.77
2018-05-25T10:44:51.550Z,4.77
2018-05-25T10:47:19.022Z,5.63
2018-05-25T10:49:47.264Z,4.03
2018-05-25T10:52:14.715Z,5.03
2018-05-25T10:54:42.164Z,4.50
2018-05-25T10:57:09.628Z,4.57
2018-05-25T10:59:37.118Z,5.87
2018-05-25T11:02:04.531Z,3.70
2018-05-25T11:04:31.976Z,4.40
2018-05-25T11:06:59.446Z,8.43
2018-05-25T11:09:26.901Z,4.43
2018-05-25T11:11:54.356Z,5.33
2018-05-25T11:14:21.812Z,4.70
2018-05-25T11:16:49.276Z,4.33
2018-05-25T11:19:16.724Z,6.10
2018-05-25T11:21:44.198Z,4.90
2018-05-25T11:24:11.639Z,4.73
2018-05-25T11:26:39.905Z,6.97
2018-05-25T11:29:07.370Z,4.03
2018-05-25T11:31:34.820Z,4.50
2018-05-25T11:34:02.259Z,4.70
2018-05-25T11:36:30.484Z,4.53
2018-05-25T11:38:57.926Z,4.50
2018-05-25T11:41:25.383Z,5.90
2018-05-25T11:43:52.816Z,7.07
2018-05-25T11:46:20.270Z,5.27
2018-05-25T11:48:47.736Z,4.62
2018-05-25T11:51:15.196Z,5.23
2018-05-25T11:53:42.661Z,5.47
2018-05-25T11:56:10.146Z,4.60
2018-05-25T11:58:38.333Z,7.13
2018-05-25T12:01:05.777Z,5.00
2018-05-25T12:03:33.232Z,3.93
2018-05-25T12:06:00.677Z,4.83
2018-05-25T12:08:28.120Z,4.50
2018-05-25T12:10:55.564Z,5.03
2018-05-25T12:13:23.028Z,5.00
2018-05-25T12:15:50.496Z,5.13
2018-05-25T12:18:17.925Z,5.37
2018-05-25T12:20:46.145Z,4.70
2018-05-25T12:23:13.607Z,8.67
2018-05-25T12:25:41.041Z,5.10
2018-05-25T12:28:08.543Z,4.70
2018-05-25T12:30:35.963Z,5.33
2018-05-25T12:33:03.412Z,4.60
2018-05-25T12:35:30.865Z,4.23
2018-05-25T12:37:58.325Z,5.47
2018-05-25T12:40:25.797Z,4.50
2018-05-25T12:42:55.008Z,4.87
2018-05-25T12:45:22.450Z,5.23
2018-05-25T12:47:49.913Z,4.40
2018-05-25T12:50:17.393Z,4.10
2018-05-25T12:52:44.851Z,4.03
2018-05-25T12:55:13.297Z,4.55
2018-05-25T12:57:40.731Z,9.87
2018-05-25T13:00:08.946Z,3.90
2018-05-25T13:02:36.384Z,4.30
2018-05-25T13:05:03.863Z,5.03
2018-05-25T13:07:31.304Z,3.90
2018-05-25T13:09:58.773Z,3.80
2018-05-25T13:12:26.241Z,4.03
2018-05-25T13:14:53.687Z,4.50
2018-05-25T13:17:21.152Z,4.45
2018-05-25T13:19:48.601Z,4.57
2018-05-25T13:22:16.053Z,4.37
2018-05-25T13:24:43.507Z,6.23
2018-05-25T13:27:10.949Z,4.57
2018-05-25T13:29:38.414Z,4.60
2018-05-25T13:32:05.869Z,4.37
2018-05-25T13:34:33.339Z,5.30
2018-05-25T13:37:00.796Z,4.37
2018-05-25T13:39:28.271Z,5.32
2018-05-25T13:41:55.753Z,5.43
2018-05-25T13:44:23.205Z,5.00
2018-05-25T13:46:50.654Z,4.87
2018-05-25T13:49:18.151Z,5.90
2018-05-25T13:51:45.575Z,7.03
2018-05-25T13:54:13.044Z,9.00
2018-05-25T13:56:41.257Z,7.40
2018-05-25T13:59:08.720Z,4.20
2018-05-25T14:01:36.177Z,5.73
2018-05-25T14:04:04.393Z,5.80
2018-05-25T14:06:31.866Z,4.87
2018-05-25T14:08:59.312Z,5.83
2018-05-25T14:11:27.542Z,5.20
2018-05-25T14:13:55.009Z,5.00
2018-05-25T14:16:22.456Z,4.73
2018-05-25T14:18:49.919Z,5.20
2018-05-25T14:21:17.372Z,5.90
2018-05-25T14:23:44.842Z,5.33
2018-05-25T14:26:12.308Z,4.70
2018-05-25T14:28:39.771Z,5.73
2018-05-25T14:31:07.234Z,5.00
2018-05-25T14:33:34.699Z,5.43
2018-05-25T14:36:02.165Z,4.70
2018-05-25T14:38:30.388Z,4.90
2018-05-25T14:40:57.867Z,5.37
2018-05-25T14:43:25.305Z,8.03
2018-05-25T14:45:53.620Z,4.45
2018-05-25T14:48:21.084Z,5.20
2018-05-25T14:50:48.527Z,5.40
2018-05-25T14:53:16.001Z,5.20
2018-05-25T14:55:43.448Z,5.77
2018-05-25T14:58:10.908Z,5.25
2018-05-25T15:00:38.340Z,5.50
2018-05-25T15:03:05.803Z,5.23
2018-05-25T15:05:33.244Z,5.63
2018-05-25T15:08:00.689Z,6.13
2018-05-25T15:10:28.153Z,6.00
2018-05-25T15:12:55.609Z,5.90
2018-05-25T15:18:16.495Z,4.70
2018-05-25T15:20:44.697Z,4.60
2018-05-25T15:23:12.146Z,5.03
2018-05-25T15:25:40.381Z,4.80
2018-05-25T15:28:07.832Z,5.47
2018-05-25T15:30:35.281Z,4.23
2018-05-25T15:33:02.754Z,6.07
2018-05-25T15:35:30.199Z,5.13
2018-05-25T15:37:57.656Z,4.70
2018-05-25T15:40:25.127Z,4.53
2018-05-25T15:42:52.583Z,5.87
2018-05-25T15:45:20.031Z,8.20
2018-05-25T15:47:47.493Z,5.20
2018-05-25T15:50:21.543Z,5.00
2018-05-25T15:52:49.770Z,4.23
2018-05-25T15:55:17.229Z,4.83
2018-05-25T15:57:44.712Z,11.13
2018-05-25T16:00:12.188Z,5.00
2018-05-25T16:02:40.404Z,5.57
2018-05-25T16:05:07.844Z,4.90
2018-05-25T16:07:35.307Z,5.13
2018-05-25T16:10:02.764Z,4.53
2018-05-25T16:12:30.207Z,5.33
2018-05-25T16:14:57.673Z,5.03
2018-05-25T16:17:25.135Z,5.00
2018-05-25T16:19:52.600Z,7.43
2018-05-25T16:22:20.052Z,4.33
2018-05-25T16:24:47.490Z,5.05
2018-05-25T16:27:14.944Z,5.10
2018-05-25T16:29:42.395Z,4.40
2018-05-25T16:32:10.624Z,4.83
2018-05-25T16:34:38.064Z,4.60
2018-05-25T16:37:05.516Z,4.70
2018-05-25T16:39:32.960Z,5.07
2018-05-25T16:42:00.423Z,4.87
2018-05-25T16:44:27.907Z,5.17
2018-05-25T16:46:55.368Z,4.90
2018-05-25T16:49:22.839Z,5.00
2018-05-25T16:51:50.292Z,7.67
2018-05-25T16:54:17.744Z,4.30
2018-05-25T16:56:45.228Z,3.93
2018-05-25T16:59:12.786Z,8.00
2018-05-25T17:01:40.231Z,4.30
2018-05-25T17:04:07.680Z,5.00
2018-05-25T17:06:35.120Z,4.13
2018-05-25T17:09:02.709Z,3.90
2018-05-25T17:11:30.171Z,4.90
2018-05-25T17:13:59.117Z,4.82
2018-05-25T17:16:26.568Z,4.07
2018-05-25T17:18:54.449Z,3.93
2018-05-25T17:21:21.880Z,4.07
2018-05-25T17:23:49.340Z,4.37
2018-05-25T17:26:16.789Z,4.47
2018-05-25T17:28:45.006Z,3.60
2018-05-25T17:31:14.479Z,4.00
2018-05-25T17:33:42.072Z,3.83
2018-05-25T17:36:09.553Z,4.07
2018-05-25T17:38:36.964Z,4.73
2018-05-25T17:41:04.416Z,5.53
2018-05-25T17:43:31.863Z,3.62
2018-05-25T17:45:59.327Z,3.73
2018-05-25T17:48:26.779Z,3.40
2018-05-25T17:50:54.220Z,4.10
2018-05-25T17:53:22.449Z,4.10
2018-05-25T17:55:50.074Z,3.70
2018-05-25T17:58:17.545Z,3.53
2018-05-25T18:00:44.992Z,4.53
2018-05-25T18:03:12.477Z,4.43
2018-05-25T18:05:39.877Z,4.40
2018-05-25T18:08:08.124Z,4.30
2018-05-25T18:10:37.267Z,4.23
2018-05-25T18:13:05.467Z,3.93
2018-05-25T18:15:33.852Z,3.80
2018-05-25T18:18:01.293Z,3.93
2018-05-25T18:20:28.757Z,3.67
2018-05-25T18:22:56.198Z,3.50
2018-05-25T18:25:23.648Z,5.00
2018-05-25T18:27:51.084Z,3.42
2018-05-25T18:30:19.320Z,4.00
2018-05-25T18:32:46.778Z,3.90
2018-05-25T18:35:14.242Z,3.70
2018-05-25T18:37:41.699Z,4.47
2018-05-25T18:40:09.163Z,4.30
2018-05-25T18:42:36.624Z,5.27
2018-05-25T18:45:04.111Z,4.30
2018-05-25T18:47:31.525Z,4.37
2018-05-25T18:49:58.993Z,3.85
2018-05-25T18:52:26.487Z,4.17
2018-05-25T18:54:54.709Z,4.40
2018-05-25T18:57:22.277Z,4.23
2018-05-25T18:59:49.732Z,4.30
2018-05-25T19:02:17.180Z,4.13
2018-05-25T19:04:44.644Z,5.20
2018-05-25T19:07:12.096Z,4.90
2018-05-25T19:09:39.568Z,4.60
2018-05-25T19:12:07.006Z,5.05
2018-05-25T19:14:38.257Z,4.53
2018-05-25T19:17:05.712Z,5.30
2018-05-25T19:19:33.163Z,5.50
2018-05-25T19:22:00.620Z,5.60
2018-05-25T19:24:28.121Z,6.20
2018-05-25T19:26:55.652Z,9.03
2018-05-25T19:29:23.035Z,6.60
2018-05-25T19:31:50.509Z,6.07
2018-05-25T19:34:18.723Z,5.75
2018-05-25T19:36:46.192Z,10.83
2018-05-25T19:39:13.631Z,5.23
2018-05-25T19:41:41.099Z,4.93
2018-05-25T19:44:08.574Z,5.50
2018-05-25T19:46:36.167Z,5.83
2018-05-25T19:49:03.603Z,5.03
2018-05-25T19:51:31.083Z,5.83
2018-05-25T19:53:58.616Z,4.90
2018-05-25T19:56:26.083Z,9.25
2018-05-25T19:58:53.557Z,22.17
2018-05-25T20:01:20.994Z,13.93
2018-05-25T20:03:48.549Z,9.50
2018-05-25T20:06:16.009Z,6.70
2018-05-25T20:08:43.516Z,7.80
2018-05-25T20:11:10.975Z,5.03
2018-05-25T20:13:38.436Z,5.30
2018-05-25T20:16:05.945Z,4.77
2018-05-25T20:18:33.353Z,5.63
2018-05-25T20:21:00.789Z,5.37
2018-05-25T20:23:29.029Z,5.63
2018-05-25T20:25:56.591Z,7.83
2018-05-25T20:28:24.158Z,7.63
2018-05-25T20:30:51.570Z,8.13
2018-05-25T20:33:19.061Z,7.50
2018-05-25T20:35:46.505Z,7.53
2018-05-25T20:38:13.961Z,4.83
2018-05-25T20:40:41.659Z,6.87
2018-05-25T20:43:09.884Z,5.47
2018-05-25T20:45:37.339Z,6.97
2018-05-25T20:48:04.808Z,5.67
2018-05-25T20:50:32.359Z,6.27
2018-05-25T20:52:59.820Z,5.40
2018-05-25T20:55:27.289Z,5.10
2018-05-25T20:57:54.741Z,6.33
2018-05-25T21:00:22.181Z,6.73
2018-05-25T21:02:49.633Z,7.03
2018-05-25T21:05:17.091Z,22.43
2018-05-25T21:07:44.541Z,8.20
2018-05-25T21:10:12.011Z,6.00
2018-05-25T21:12:39.609Z,6.80
2018-05-25T21:15:07.093Z,6.00
2018-05-25T21:17:35.293Z,7.13
2018-05-25T21:20:02.777Z,7.20
2018-05-25T21:22:40.737Z,6.63
2018-05-25T21:25:08.959Z,7.32
2018-05-25T21:27:36.423Z,5.90
2018-05-25T21:30:03.897Z,6.00
2018-05-25T21:32:31.344Z,6.27
2018-05-25T21:34:58.804Z,6.10
2018-05-25T21:37:26.262Z,6.43
2018-05-25T21:39:53.715Z,5.45
2018-05-25T21:42:21.176Z,6.83
2018-05-25T21:44:48.638Z,5.70
2018-05-25T21:47:16.093Z,6.13
2018-05-25T21:49:43.549Z,7.90
2018-05-25T21:52:11.024Z,6.93
2018-05-25T21:54:38.481Z,6.80
2018-05-25T21:57:05.927Z,7.27
2018-05-25T21:59:33.392Z,10.85
2018-05-25T22:02:01.636Z,7.10
2018-05-25T22:04:29.089Z,6.80
2018-05-25T22:06:56.529Z,5.90
2018-05-25T22:09:25.433Z,6.90
2018-05-25T22:11:52.892Z,7.33
2018-05-25T22:14:20.336Z,5.70
2018-05-25T22:16:48.632Z,6.40
2018-05-25T22:19:15.992Z,7.13
2018-05-25T22:21:43.457Z,7.12
2018-05-25T22:24:10.901Z,6.77
2018-05-25T22:26:38.342Z,6.47
2018-05-25T22:29:05.808Z,5.87
2018-05-25T22:31:34.484Z,9.33
2018-05-25T22:34:01.921Z,5.83
2018-05-25T22:36:30.157Z,6.17
2018-05-25T22:38:57.607Z,5.87
2018-05-25T22:41:25.067Z,7.20
2018-05-25T22:44:04.566Z,6.82
2018-05-25T22:46:43.941Z,6.40
2018-05-25T22:49:24.039Z,6.30
2018-05-25T22:52:04.161Z,6.62
2018-05-25T22:54:37.381Z,7.40
2018-05-25T22:57:05.599Z,6.30
2018-05-25T22:59:33.060Z,6.17
2018-05-25T23:02:00.605Z,6.00
2018-05-25T23:04:28.057Z,7.10
2018-05-25T23:07:08.033Z,6.93
2018-05-25T23:09:35.505Z,7.37
2018-05-25T23:12:02.956Z,8.25
2018-05-25T23:14:30.399Z,7.20
2018-05-25T23:16:57.877Z,7.00
2018-05-25T23:19:25.324Z,7.23
2018-05-25T23:21:52.782Z,7.33
2018-05-25T23:24:20.246Z,7.00
2018-05-25T23:26:47.700Z,5.80
2018-05-25T23:29:15.167Z,6.30
2018-05-25T23:31:42.604Z,6.10
2018-05-25T23:34:10.063Z,6.40
2018-05-25T23:36:37.501Z,5.80
2018-05-25T23:39:05.759Z,6.50
2018-05-25T23:41:33.201Z,7.30
2018-05-25T23:44:01.419Z,6.83
2018-05-25T23:46:28.855Z,6.47
2018-05-25T23:48:56.293Z,6.73
2018-05-25T23:51:24.531Z,7.13
2018-05-25T23:53:51.972Z,7.73
2018-05-25T23:56:19.413Z,7.18
2018-05-25T23:58:46.879Z,5.97
